createdAt,value
2023-01-22T00:02:20.681Z,103025.50
2023-01-22T00:04:48.235Z,103021.94
2023-01-22T00:07:16.417Z,103021.72
2023-01-22T00:09:43.984Z,103019.63
2023-01-22T00:12:11.670Z,103017.59
2023-01-22T00:14:40.490Z,103015.06
2023-01-22T00:17:08.063Z,103015.75
2023-01-22T00:19:36.947Z,103012.72
2023-01-22T00:22:04.445Z,103009.34
2023-01-22T00:24:31.949Z,102993.13
2023-01-22T00:26:59.503Z,102997.94
2023-01-22T00:29:27.064Z,103005.56
2023-01-22T00:31:54.626Z,103002.16
2023-01-22T00:34:22.254Z,102999.84
2023-01-22T00:36:52.804Z,102998.59
2023-01-22T00:39:21.229Z,102991.81
2023-01-22T00:41:49.669Z,102988.97
2023-01-22T00:44:17.315Z,102992.19
2023-01-22T00:46:44.849Z,102994.13
2023-01-22T00:49:13.290Z,102994.13
2023-01-22T00:51:40.854Z,102998.34
2023-01-22T00:54:10.997Z,102995.63
2023-01-22T00:56:38.533Z,102992.00
2023-01-22T00:59:10.293Z,102995.41
2023-01-22T01:01:38.385Z,102993.91
2023-01-22T01:04:06.298Z,102984.66
2023-01-22T01:06:34.082Z,102983.31
2023-01-22T01:09:01.735Z,102984.66
2023-01-22T01:11:30.724Z,102978.63
2023-01-22T01:13:58.437Z,102986.34
2023-01-22T01:16:29.546Z,102990.69
2023-01-22T01:18:59.493Z,102988.78
2023-01-22T01:21:27.228Z,102989.75
2023-01-22T01:23:55.945Z,102986.13
2023-01-22T01:26:23.563Z,102984.47
2023-01-22T01:28:53.257Z,102976.25
2023-01-22T01:31:22.554Z,102967.69
2023-01-22T01:33:50.466Z,102984.28
2023-01-22T01:36:35.490Z,102976.63
2023-01-22T01:39:07.563Z,102975.06
2023-01-22T01:41:35.102Z,102978.53
2023-01-22T01:44:15.902Z,102989.50
2023-01-22T01:46:47.803Z,102990.34
2023-01-22T01:49:19.722Z,102985.06
2023-01-22T01:51:48.917Z,102977.69
2023-01-22T01:54:17.826Z,102977.56
2023-01-22T01:56:48.708Z,102985.91
2023-01-22T01:59:20.771Z,102980.41
2023-01-22T02:01:52.312Z,102985.81
2023-01-22T02:04:20.744Z,102976.84
2023-01-22T02:06:48.410Z,102974.59
2023-01-22T02:09:16.231Z,102977.91
2023-01-22T02:11:44.327Z,102984.22
2023-01-22T02:14:15.394Z,102984.88
2023-01-22T02:16:44.376Z,102983.69
2023-01-22T02:19:13.103Z,102985.59
2023-01-22T02:21:44.096Z,102979.41
2023-01-22T02:24:13.245Z,102980.22
2023-01-22T02:26:42.261Z,102985.06
2023-01-22T02:29:13.328Z,102971.75
2023-01-22T02:31:42.540Z,102985.91
2023-01-22T02:34:11.256Z,102976.75
2023-01-22T02:36:40.213Z,102980.97
2023-01-22T02:39:09.172Z,102974.00
2023-01-22T02:41:38.845Z,102976.63
2023-01-22T02:44:07.659Z,102972.63
2023-01-22T02:46:35.587Z,102970.84
2023-01-22T02:49:03.295Z,102973.91
2023-01-22T02:51:33.027Z,102964.75
2023-01-22T02:54:00.749Z,102964.31
2023-01-22T02:56:29.937Z,102969.72
2023-01-22T02:59:00.932Z,102964.22
2023-01-22T03:01:28.624Z,102960.72
2023-01-22T03:04:01.443Z,102973.50
2023-01-22T03:06:30.618Z,102969.38
2023-01-22T03:09:01.981Z,102965.41
2023-01-22T03:11:36.782Z,102968.25
2023-01-22T03:14:24.263Z,102965.41
2023-01-22T03:17:11.706Z,102970.44
2023-01-22T03:19:56.772Z,102966.13
2023-01-22T03:22:24.426Z,102969.81
2023-01-22T03:24:53.001Z,102957.69
2023-01-22T03:27:27.116Z,102959.81
2023-01-22T03:29:55.553Z,102961.59
2023-01-22T03:32:24.053Z,102964.22
2023-01-22T03:34:53.582Z,102965.72
2023-01-22T03:37:22.356Z,102957.38
2023-01-22T03:39:53.443Z,102970.22
2023-01-22T03:42:30.063Z,102951.16
2023-01-22T03:44:57.612Z,102959.69
2023-01-22T03:47:26.537Z,102960.66
2023-01-22T03:49:54.036Z,102957.03
2023-01-22T03:52:21.919Z,102952.22
2023-01-22T03:54:49.457Z,102945.69
2023-01-22T03:57:17.027Z,102947.13
2023-01-22T03:59:46.067Z,102951.44
2023-01-22T04:02:13.699Z,102959.06
2023-01-22T04:04:57.199Z,102946.72
2023-01-22T04:07:24.803Z,102958.75
2023-01-22T04:09:53.256Z,102956.31
2023-01-22T04:12:20.814Z,102955.38
2023-01-22T04:14:49.725Z,102952.53
2023-01-22T04:17:19.469Z,102958.75
2023-01-22T04:19:51.278Z,102958.34
2023-01-22T04:22:45.152Z,102962.88
2023-01-22T04:25:13.841Z,102951.16
2023-01-22T04:27:45.234Z,102945.06
2023-01-22T04:30:19.044Z,102947.78
2023-01-22T04:32:49.484Z,102948.41
2023-01-22T04:35:29.301Z,102946.94
2023-01-22T04:38:00.541Z,102936.72
2023-01-22T04:40:28.690Z,102942.72
2023-01-22T04:42:56.436Z,102939.13
2023-01-22T04:45:25.812Z,102935.94
2023-01-22T04:47:53.446Z,102938.59
2023-01-22T04:50:25.029Z,102938.09
2023-01-22T04:52:54.130Z,102931.88
2023-01-22T04:55:22.194Z,102935.53
2023-01-22T04:58:09.952Z,102928.69
2023-01-22T05:00:39.147Z,102932.38
2023-01-22T05:03:07.167Z,102917.81
2023-01-22T05:05:34.869Z,102922.75
2023-01-22T05:08:03.281Z,102925.09
2023-01-22T05:10:32.147Z,102928.25
2023-01-22T05:13:03.906Z,102923.31
2023-01-22T05:15:31.745Z,102929.53
2023-01-22T05:18:06.506Z,102932.69
2023-01-22T05:20:36.796Z,102933.03
2023-01-22T05:23:05.071Z,102928.59
2023-01-22T05:25:33.261Z,102928.91
2023-01-22T05:28:02.355Z,102932.38
2023-01-22T05:30:48.688Z,102929.03
2023-01-22T05:33:29.449Z,102936.59
2023-01-22T05:35:58.274Z,102933.31
2023-01-22T05:38:25.860Z,102927.97
2023-01-22T05:40:53.930Z,102934.91
2023-01-22T05:43:22.773Z,102932.19
2023-01-22T05:45:55.920Z,102938.91
2023-01-22T05:48:43.375Z,102935.66
2023-01-22T05:51:25.013Z,102934.41
2023-01-22T05:53:53.552Z,102941.03
2023-01-22T05:56:21.211Z,102938.84
2023-01-22T05:58:48.837Z,102946.09
2023-01-22T06:01:16.382Z,102941.69
2023-01-22T06:03:49.729Z,102937.78
2023-01-22T06:06:20.303Z,102948.25
2023-01-22T06:08:51.201Z,102941.25
2023-01-22T06:11:19.156Z,102940.81
2023-01-22T06:13:47.296Z,102942.00
2023-01-22T06:16:17.812Z,102942.75
2023-01-22T06:19:13.388Z,102954.75
2023-01-22T06:21:45.264Z,102950.97
2023-01-22T06:24:13.137Z,102952.66
2023-01-22T06:26:40.746Z,102946.97
2023-01-22T06:29:11.585Z,102949.06
2023-01-22T06:31:40.386Z,102943.38
2023-01-22T06:34:09.799Z,102944.22
2023-01-22T06:36:38.858Z,102946.13
2023-01-22T06:39:07.100Z,102940.63
2023-01-22T06:41:43.694Z,102948.44
2023-01-22T06:44:15.541Z,102946.66
2023-01-22T06:46:43.479Z,102944.97
2023-01-22T06:49:17.704Z,102954.56
2023-01-22T06:51:46.540Z,102961.53
2023-01-22T06:54:14.536Z,102966.41
2023-01-22T06:56:42.121Z,102960.38
2023-01-22T06:59:09.953Z,102971.25
2023-01-22T07:01:37.535Z,102968.09
2023-01-22T07:04:05.274Z,102974.34
2023-01-22T07:06:32.850Z,102969.16
2023-01-22T07:09:01.680Z,102972.50
2023-01-22T07:11:29.247Z,102979.81
2023-01-22T07:13:56.739Z,102973.28
2023-01-22T07:16:24.292Z,102981.50
2023-01-22T07:18:51.839Z,102982.66
2023-01-22T07:21:19.337Z,102985.09
2023-01-22T07:23:46.844Z,102993.22
2023-01-22T07:26:16.989Z,102988.78
2023-01-22T07:28:44.949Z,102986.47
2023-01-22T07:31:13.348Z,102991.97
2023-01-22T07:33:40.957Z,102988.78
2023-01-22T07:36:08.911Z,102997.03
2023-01-22T07:38:36.435Z,102994.59
2023-01-22T07:41:07.217Z,103002.63
2023-01-22T07:43:40.276Z,102994.59
2023-01-22T07:46:09.289Z,102999.47
2023-01-22T07:48:37.457Z,102996.06
2023-01-22T07:51:07.274Z,103006.53
2023-01-22T07:53:36.045Z,102992.16
2023-01-22T07:56:03.553Z,103010.56
2023-01-22T07:58:31.125Z,103007.38
2023-01-22T08:01:00.027Z,103011.50
2023-01-22T08:03:27.727Z,103009.41
2023-01-22T08:05:56.562Z,103020.47
2023-01-22T08:08:24.085Z,103024.91
2023-01-22T08:10:51.627Z,103021.22
2023-01-22T08:13:19.152Z,103025.22
2023-01-22T08:15:46.750Z,103029.66
2023-01-22T08:18:17.402Z,103029.34
2023-01-22T08:20:45.544Z,103039.41
2023-01-22T08:23:13.129Z,103045.97
2023-01-22T08:25:40.853Z,103043.53
2023-01-22T08:28:08.663Z,103041.19
2023-01-22T08:30:45.427Z,103040.56
2023-01-22T08:33:15.705Z,103049.22
2023-01-22T08:35:43.356Z,103051.13
2023-01-22T08:38:10.854Z,103050.91
2023-01-22T08:40:38.444Z,103048.28
2023-01-22T08:43:06.019Z,103052.59
2023-01-22T08:45:34.177Z,103057.88
2023-01-22T08:48:01.749Z,103058.50
2023-01-22T08:50:30.658Z,103050.06
2023-01-22T08:52:58.514Z,103054.19
2023-01-22T08:55:27.558Z,103053.66
2023-01-22T08:57:55.624Z,103047.72
2023-01-22T09:00:24.212Z,103055.00
2023-01-22T09:02:51.870Z,103057.78
2023-01-22T09:05:19.443Z,103054.81
2023-01-22T09:07:48.267Z,103056.19
2023-01-22T09:10:15.765Z,103043.28
2023-01-22T09:12:43.301Z,103041.16
2023-01-22T09:15:11.543Z,103046.88
2023-01-22T09:17:39.091Z,103037.16
2023-01-22T09:20:07.269Z,103042.22
2023-01-22T09:22:34.878Z,103042.88
2023-01-22T09:25:04.900Z,103041.50
2023-01-22T09:27:32.607Z,103048.56
2023-01-22T09:30:00.904Z,103051.94
2023-01-22T09:32:28.566Z,103052.66
2023-01-22T09:34:56.076Z,103045.50
2023-01-22T09:37:25.188Z,103039.38
2023-01-22T09:39:53.229Z,103040.72
2023-01-22T09:42:26.911Z,103045.59
2023-01-22T09:44:58.399Z,103045.66
2023-01-22T09:47:34.820Z,103048.09
2023-01-22T09:50:08.099Z,103052.06
2023-01-22T09:52:39.046Z,103054.22
2023-01-22T09:55:13.224Z,103055.06
2023-01-22T09:57:46.217Z,103052.22
2023-01-22T10:00:18.760Z,103056.34
2023-01-22T10:02:49.873Z,103057.72
2023-01-22T10:05:24.623Z,103058.03
2023-01-22T10:07:55.265Z,103060.34
2023-01-22T10:10:25.142Z,103051.50
2023-01-22T10:12:58.277Z,103052.84
2023-01-22T10:15:25.996Z,103058.34
2023-01-22T10:17:57.928Z,103054.00
2023-01-22T10:20:25.652Z,103051.97
2023-01-22T10:22:56.096Z,103054.50
2023-01-22T10:25:23.619Z,103056.84
2023-01-22T10:28:00.717Z,103052.72
2023-01-22T10:30:30.160Z,103056.41
2023-01-22T10:33:02.284Z,103052.06
2023-01-22T10:35:31.961Z,103058.63
2023-01-22T10:38:00.796Z,103052.53
2023-01-22T10:40:31.418Z,103045.69
2023-01-22T10:43:07.696Z,103053.00
2023-01-22T10:45:35.271Z,103046.75
2023-01-22T10:48:12.259Z,103038.47
2023-01-22T10:50:39.979Z,103042.19
2023-01-22T10:53:18.624Z,103034.88
2023-01-22T10:55:55.067Z,103039.00
2023-01-22T10:58:26.942Z,103034.88
2023-01-22T11:01:00.448Z,103035.16
2023-01-22T11:03:34.432Z,103030.16
2023-01-22T11:06:06.965Z,103022.50
2023-01-22T11:08:47.956Z,103031.38
2023-01-22T11:11:18.689Z,103027.34
2023-01-22T11:14:00.316Z,103022.06
2023-01-22T11:16:32.992Z,103020.81
2023-01-22T11:19:04.415Z,103030.44
2023-01-22T11:21:36.188Z,103021.28
2023-01-22T11:24:10.578Z,103028.19
2023-01-22T11:26:49.840Z,103030.09
2023-01-22T11:29:32.678Z,103022.28
2023-01-22T11:32:22.796Z,103022.72
2023-01-22T11:35:05.573Z,103013.66
2023-01-22T11:37:45.725Z,103011.25
2023-01-22T11:40:24.599Z,103008.06
2023-01-22T11:43:18.031Z,103001.28
2023-01-22T11:46:04.286Z,103004.63
2023-01-22T11:48:45.387Z,102996.78
2023-01-22T11:51:22.382Z,102999.72
2023-01-22T11:54:01.574Z,102990.81
2023-01-22T11:56:50.295Z,102994.31
2023-01-22T11:59:28.244Z,102985.28
2023-01-22T12:02:19.425Z,102985.06
2023-01-22T12:05:05.524Z,102989.41
2023-01-22T12:08:03.561Z,102998.34
2023-01-22T12:10:54.826Z,103001.91
2023-01-22T12:13:35.051Z,103000.72
2023-01-22T12:16:13.031Z,102999.53
2023-01-22T12:19:15.638Z,103006.00
2023-01-22T12:21:58.509Z,102998.59
2023-01-22T12:24:32.122Z,103004.69
2023-01-22T12:27:04.703Z,102998.81
2023-01-22T12:29:36.064Z,103005.06
2023-01-22T12:32:08.872Z,102997.59
2023-01-22T12:34:43.220Z,103003.66
2023-01-22T12:37:16.781Z,103002.19
2023-01-22T12:39:52.490Z,103008.41
2023-01-22T12:42:28.357Z,103003.75
2023-01-22T12:45:06.400Z,102999.53
2023-01-22T12:47:48.065Z,103002.91
2023-01-22T12:50:20.680Z,103000.16
2023-01-22T12:53:01.723Z,103001.00
2023-01-22T12:55:31.879Z,103005.56
2023-01-22T12:57:59.946Z,103000.16
2023-01-22T13:00:34.598Z,103002.44
2023-01-22T13:03:04.026Z,103002.81
2023-01-22T13:05:44.374Z,102994.16
2023-01-22T13:08:28.010Z,102997.38
2023-01-22T13:10:57.517Z,102998.22
2023-01-22T13:13:30.515Z,102995.72
2023-01-22T13:16:02.698Z,103004.28
2023-01-22T13:18:33.893Z,102995.09
2023-01-22T13:21:05.516Z,102997.28
2023-01-22T13:23:36.130Z,103001.00
2023-01-22T13:26:04.675Z,102993.91
2023-01-22T13:28:32.311Z,102995.47
2023-01-22T13:31:02.216Z,102992.84
2023-01-22T13:33:30.881Z,102997.75
2023-01-22T13:35:59.355Z,102997.28
2023-01-22T13:38:29.257Z,102997.38
2023-01-22T13:40:59.890Z,102997.53
2023-01-22T13:43:28.405Z,103001.00
2023-01-22T13:45:58.102Z,103012.56
2023-01-22T13:48:27.401Z,103007.75
2023-01-22T13:50:57.612Z,103009.69
2023-01-22T13:53:31.684Z,103013.03
2023-01-22T13:56:01.255Z,103015.59
2023-01-22T13:58:47.901Z,103014.50
2023-01-22T14:01:28.985Z,103014.28
2023-01-22T14:04:01.217Z,103015.59
2023-01-22T14:06:29.673Z,103024.88
2023-01-22T14:08:59.184Z,103019.94
2023-01-22T14:11:38.306Z,103024.78
2023-01-22T14:14:16.082Z,103029.69
2023-01-22T14:16:44.029Z,103026.34
2023-01-22T14:19:11.785Z,103032.81
2023-01-22T14:21:39.384Z,103030.06
2023-01-22T14:24:08.008Z,103038.97
2023-01-22T14:26:37.184Z,103042.09
2023-01-22T14:29:04.823Z,103037.09
2023-01-22T14:31:32.492Z,103046.69
2023-01-22T14:34:00.000Z,103046.81
2023-01-22T14:36:27.567Z,103042.00
2023-01-22T14:38:55.339Z,103043.72
2023-01-22T14:41:22.907Z,103049.97
2023-01-22T14:43:51.778Z,103049.00
2023-01-22T14:46:19.385Z,103045.84
2023-01-22T14:48:48.380Z,103053.31
2023-01-22T14:51:15.991Z,103058.59
2023-01-22T14:53:43.623Z,103054.16
2023-01-22T14:56:11.145Z,103053.78
2023-01-22T14:58:38.683Z,103059.69
2023-01-22T15:01:17.227Z,103072.09
2023-01-22T15:03:45.125Z,103062.94
2023-01-22T15:06:12.706Z,103062.56
2023-01-22T15:08:40.372Z,103070.13
2023-01-22T15:11:08.085Z,103074.00
2023-01-22T15:13:36.154Z,103074.97
2023-01-22T15:16:05.042Z,103080.03
2023-01-22T15:18:34.805Z,103074.72
2023-01-22T15:21:03.930Z,103080.75
2023-01-22T15:23:31.664Z,103079.09
2023-01-22T15:26:00.247Z,103084.16
2023-01-22T15:28:28.347Z,103082.22
2023-01-22T15:30:57.288Z,103092.91
2023-01-22T15:33:25.185Z,103096.19
2023-01-22T15:35:54.072Z,103094.97
2023-01-22T15:38:21.623Z,103094.00
2023-01-22T15:40:49.242Z,103092.09
2023-01-22T15:43:16.729Z,103107.00
2023-01-22T15:45:44.294Z,103108.81
2023-01-22T15:48:13.872Z,103105.13
2023-01-22T15:50:41.462Z,103103.66
2023-01-22T15:53:10.391Z,103108.94
2023-01-22T15:55:37.874Z,103109.66
2023-01-22T15:58:05.373Z,103114.34
2023-01-22T16:00:33.633Z,103109.78
2023-01-22T16:03:01.223Z,103120.03
2023-01-22T16:05:28.830Z,103127.00
2023-01-22T16:07:56.393Z,103122.06
2023-01-22T16:10:25.280Z,103117.59
2023-01-22T16:12:52.873Z,103122.91
2023-01-22T16:15:20.404Z,103121.00
2023-01-22T16:17:47.971Z,103119.31
2023-01-22T16:20:15.819Z,103124.16
2023-01-22T16:22:45.390Z,103121.81
2023-01-22T16:25:12.994Z,103117.59
2023-01-22T16:27:41.896Z,103125.31
2023-01-22T16:30:10.692Z,103122.66
2023-01-22T16:32:42.411Z,103120.00
2023-01-22T16:35:11.028Z,103132.31
2023-01-22T16:37:39.074Z,103133.59
2023-01-22T16:40:08.244Z,103132.13
2023-01-22T16:42:36.353Z,103128.91
2023-01-22T16:45:05.973Z,103128.06
2023-01-22T16:47:33.549Z,103126.44
2023-01-22T16:50:01.148Z,103133.94
2023-01-22T16:52:28.741Z,103132.97
2023-01-22T16:54:56.253Z,103132.13
2023-01-22T16:57:23.801Z,103139.91
2023-01-22T16:59:51.408Z,103134.88
2023-01-22T17:02:20.374Z,103136.13
2023-01-22T17:04:48.042Z,103147.97
2023-01-22T17:07:32.313Z,103136.13
2023-01-22T17:10:00.856Z,103146.94
2023-01-22T17:12:28.459Z,103146.44
2023-01-22T17:14:55.969Z,103145.16
2023-01-22T17:17:24.879Z,103144.78
2023-01-22T17:19:52.397Z,103143.81
2023-01-22T17:22:20.456Z,103139.41
2023-01-22T17:24:48.067Z,103142.78
2023-01-22T17:27:18.318Z,103150.19
2023-01-22T17:29:45.982Z,103142.56
2023-01-22T17:32:13.598Z,103147.84
2023-01-22T17:34:42.772Z,103148.34
2023-01-22T17:37:11.078Z,103149.56
2023-01-22T17:39:38.892Z,103152.69
2023-01-22T17:42:06.643Z,103149.78
2023-01-22T17:44:35.176Z,103151.44
2023-01-22T17:47:03.445Z,103158.13
2023-01-22T17:49:32.504Z,103156.53
2023-01-22T17:52:01.450Z,103161.13
2023-01-22T17:54:29.020Z,103158.22
2023-01-22T17:56:56.600Z,103162.03
2023-01-22T17:59:24.845Z,103158.00
2023-01-22T18:01:52.457Z,103162.91
2023-01-22T18:04:20.081Z,103163.97
2023-01-22T18:06:47.628Z,103162.03
2023-01-22T18:09:17.265Z,103166.63
2023-01-22T18:11:45.220Z,103171.41
2023-01-22T18:14:16.601Z,103165.53
2023-01-22T18:16:45.797Z,103175.53
2023-01-22T18:19:13.364Z,103185.28
2023-01-22T18:21:41.749Z,103172.63
2023-01-22T18:24:11.515Z,103183.50
2023-01-22T18:26:40.714Z,103187.72
2023-01-22T18:29:08.931Z,103193.81
2023-01-22T18:31:37.118Z,103193.38
2023-01-22T18:34:07.162Z,103191.31
2023-01-22T18:36:37.044Z,103191.44
2023-01-22T18:39:06.986Z,103186.13
2023-01-22T18:41:34.677Z,103191.94
2023-01-22T18:44:04.692Z,103193.50
2023-01-22T18:46:34.063Z,103192.22
2023-01-22T18:49:06.969Z,103194.84
2023-01-22T18:51:35.208Z,103195.94
2023-01-22T18:54:04.761Z,103196.19
2023-01-22T18:56:32.371Z,103204.50
2023-01-22T18:59:00.599Z,103199.81
2023-01-22T19:01:31.812Z,103204.78
2023-01-22T19:04:01.011Z,103199.38
2023-01-22T19:06:32.126Z,103205.41
2023-01-22T19:09:02.752Z,103210.19
2023-01-22T19:11:31.684Z,103212.00
2023-01-22T19:14:02.661Z,103218.63
2023-01-22T19:16:32.146Z,103216.72
2023-01-22T19:19:03.064Z,103216.72
2023-01-22T19:21:31.114Z,103222.34
2023-01-22T19:24:00.733Z,103219.13
2023-01-22T19:26:31.448Z,103220.56
2023-01-22T19:29:01.089Z,103228.81
2023-01-22T19:31:32.250Z,103221.81
2023-01-22T19:34:01.209Z,103219.09
2023-01-22T19:36:30.825Z,103225.88
2023-01-22T19:39:00.545Z,103225.88
2023-01-22T19:41:28.746Z,103230.41
2023-01-22T19:43:58.553Z,103229.72
2023-01-22T19:46:27.519Z,103234.31
2023-01-22T19:48:57.359Z,103239.81
2023-01-22T19:51:26.802Z,103242.56
2023-01-22T19:53:55.382Z,103250.41
2023-01-22T19:56:25.553Z,103246.56
2023-01-22T19:58:54.712Z,103253.16
2023-01-22T20:01:22.894Z,103253.16
2023-01-22T20:03:50.645Z,103258.00
2023-01-22T20:06:19.913Z,103262.81
2023-01-22T20:08:48.003Z,103263.97
2023-01-22T20:11:16.694Z,103273.06
2023-01-22T20:13:44.491Z,103275.84
2023-01-22T20:16:20.199Z,103279.75
2023-01-22T20:18:49.107Z,103287.81
2023-01-22T20:21:17.962Z,103286.09
2023-01-22T20:23:48.818Z,103291.19
2023-01-22T20:26:18.500Z,103288.38
2023-01-22T20:28:46.563Z,103285.53
2023-01-22T20:31:17.282Z,103286.06
2023-01-22T20:33:45.066Z,103281.34
2023-01-22T20:36:15.132Z,103287.28
2023-01-22T20:38:43.708Z,103293.88
2023-01-22T20:41:13.181Z,103281.91
2023-01-22T20:43:42.900Z,103287.50
2023-01-22T20:46:13.701Z,103286.34
2023-01-22T20:48:41.963Z,103297.81
2023-01-22T20:51:15.118Z,103297.03
2023-01-22T20:53:43.341Z,103286.44
2023-01-22T20:56:14.928Z,103295.38
2023-01-22T20:58:43.239Z,103291.03
2023-01-22T21:01:14.407Z,103284.78
2023-01-22T21:03:42.522Z,103281.16
2023-01-22T21:06:14.047Z,103288.59
2023-01-22T21:08:42.528Z,103284.22
2023-01-22T21:11:17.683Z,103278.44
2023-01-22T21:13:45.513Z,103287.09
2023-01-22T21:16:15.179Z,103283.59
2023-01-22T21:18:45.494Z,103288.38
2023-01-22T21:21:17.547Z,103283.53
2023-01-22T21:23:45.729Z,103293.91
2023-01-22T21:26:16.288Z,103287.31
2023-01-22T21:28:43.842Z,103288.28
2023-01-22T21:31:14.103Z,103287.75
2023-01-22T21:33:42.637Z,103286.28
2023-01-22T21:36:11.853Z,103288.19
2023-01-22T21:38:40.214Z,103285.88
2023-01-22T21:41:09.781Z,103277.81
2023-01-22T21:43:57.519Z,103283.09
2023-01-22T21:46:28.321Z,103286.94
2023-01-22T21:48:58.139Z,103292.66
2023-01-22T21:51:26.222Z,103290.81
2023-01-22T21:53:54.483Z,103292.31
2023-01-22T21:56:22.614Z,103294.44
2023-01-22T21:58:51.927Z,103294.53
2023-01-22T22:01:22.843Z,103301.75
2023-01-22T22:03:50.677Z,103307.03
2023-01-22T22:06:18.565Z,103310.63
2023-01-22T22:08:46.225Z,103304.81
2023-01-22T22:11:14.560Z,103310.84
2023-01-22T22:13:42.321Z,103315.94
2023-01-22T22:16:11.569Z,103321.44
2023-01-22T22:18:39.621Z,103318.91
2023-01-22T22:21:09.177Z,103316.34
2023-01-22T22:23:37.036Z,103323.34
2023-01-22T22:26:05.595Z,103324.28
2023-01-22T22:28:33.802Z,103323.56
2023-01-22T22:31:08.141Z,103326.28
2023-01-22T22:33:37.074Z,103322.91
2023-01-22T22:36:05.252Z,103328.22
2023-01-22T22:38:33.112Z,103329.50
2023-01-22T22:41:02.647Z,103324.50
2023-01-22T22:43:33.253Z,103329.50
2023-01-22T22:46:06.429Z,103330.88
2023-01-22T22:48:34.348Z,103331.16
2023-01-22T22:51:10.621Z,103332.66
2023-01-22T22:53:38.339Z,103325.56
2023-01-22T22:56:07.111Z,103327.47
2023-01-22T22:58:35.063Z,103330.53
2023-01-22T23:01:07.635Z,103317.84
2023-01-22T23:03:37.089Z,103313.06
2023-01-22T23:06:10.260Z,103314.84
2023-01-22T23:08:38.175Z,103314.84
2023-01-22T23:11:06.660Z,103318.34
2023-01-22T23:13:34.843Z,103322.72
2023-01-22T23:16:03.328Z,103324.06
2023-01-22T23:18:31.579Z,103318.06
2023-01-22T23:20:59.571Z,103312.22
2023-01-22T23:23:28.413Z,103317.28
2023-01-22T23:25:55.909Z,103321.00
2023-01-22T23:28:23.454Z,103318.47
2023-01-22T23:30:51.013Z,103311.06
2023-01-22T23:33:18.681Z,103315.41
2023-01-22T23:35:47.001Z,103317.06
2023-01-22T23:38:14.500Z,103309.34
2023-01-22T23:40:43.512Z,103315.28
2023-01-22T23:43:11.354Z,103316.78
2023-01-22T23:45:39.666Z,103321.75
2023-01-22T23:48:07.392Z,103323.78
2023-01-22T23:50:34.943Z,103325.66
2023-01-22T23:53:02.456Z,103320.59
2023-01-22T23:55:32.093Z,103316.13
2023-01-22T23:58:00.985Z,103325.91
